Time;durP1;ratioP1;P1;durP2;ratioP2;P2;SDS_P1;SDS_P2;PMS_P1;PMS_P2;Temp;Humidity;BMP_temperature;BMP_pressure;BME280_temperature;BME280_humidity;BME280_pressure;Samples;Min_cycle;Max_cycle;Signal;HPM_P1;HPM_P2
2021/12/16 00:08:55;;;;;;;35.38;18.52;;;;;;;-0.85;70.40;94125.66;2069185;69;20160;-68
2021/12/16 00:11:37;;;;;;;29.77;16.92;;;;;;;-0.77;70.26;94128.69;2068587;69;20594;-68
2021/12/16 00:33:17;;;;;;;32.42;17.73;;;;;;;-1.06;72.99;94105.78;2069661;69;20144;-68
2021/12/16 00:35:46;;;;;;;35.63;17.48;;;;;;;-1.03;71.98;94110.31;2071119;69;20152;-67
2021/12/16 00:38:12;;;;;;;29.38;17.08;;;;;;;-0.97;71.11;94115.84;2071438;69;20591;-68
2021/12/16 00:40:41;;;;;;;33.80;17.20;;;;;;;-0.82;70.52;94123.91;2067959;69;20672;-68
2021/12/16 00:43:19;;;;;;;31.98;17.05;;;;;;;-0.86;70.84;94120.66;2067883;69;20160;-68
2021/12/16 00:54:12;;;;;;;36.53;19.65;;;;;;;-0.88;70.73;94103.78;2070252;69;20141;-69
2021/12/16 00:56:57;;;;;;;40.28;21.83;;;;;;;-0.96;70.69;94095.25;2067077;69;20148;-67
2021/12/16 00:59:26;;;;;;;46.25;22.67;;;;;;;-0.89;72.22;94100.28;2070900;69;20148;-68
2021/12/16 01:08:00;;;;;;;34.58;19.80;;;;;;;-1.10;71.96;94107.28;2067356;69;20168;-69
2021/12/16 01:55:03;;;;;;;29.80;16.65;;;;;;;-1.11;70.58;94131.41;2068231;69;20412;-68
2021/12/16 02:00:04;;;;;;;32.13;17.35;;;;;;;-1.43;70.96;94114.28;2071355;69;20211;-68
2021/12/16 02:05:28;;;;;;;30.52;16.23;;;;;;;-1.34;70.23;94114.03;2067708;69;20231;-68
2021/12/16 02:08:17;;;;;;;30.85;16.88;;;;;;;-1.36;70.71;94113.78;2067924;69;20143;-68
2021/12/16 02:10:47;;;;;;;27.70;16.08;;;;;;;-1.31;72.29;94117.81;2067495;69;20673;-67
2021/12/16 02:32:38;;;;;;;28.05;16.42;;;;;;;-1.48;70.56;94086.63;2068055;69;20157;-69
2021/12/16 02:35:24;;;;;;;29.25;16.67;;;;;;;-1.57;72.00;94093.88;2067930;69;20678;-68
2021/12/16 02:37:48;;;;;;;30.38;16.67;;;;;;;-1.55;70.96;94096.94;2068084;69;20171;-70
2021/12/16 02:40:18;;;;;;;29.50;16.63;;;;;;;-1.48;70.89;94089.41;2067975;69;20591;-69
2021/12/16 02:48:35;;;;;;;31.90;17.40;;;;;;;-1.75;72.08;94088.81;2068006;69;20141;-69
2021/12/16 02:51:22;;;;;;;32.90;16.38;;;;;;;-1.64;72.08;94105.44;2067492;69;20151;-69
2021/12/16 02:53:52;;;;;;;27.90;14.38;;;;;;;-1.43;71.09;94103.22;2071173;69;20144;-70
2021/12/16 02:56:18;;;;;;;23.15;13.18;;;;;;;-1.49;73.05;94098.94;2067468;69;20235;-70
2021/12/16 02:58:48;;;;;;;28.20;15.25;;;;;;;-1.90;74.04;94107.59;2068147;69;20235;-68
2021/12/16 03:01:28;;;;;;;27.58;15.68;;;;;;;-1.62;72.66;94104.94;2066701;69;20144;-69
2021/12/16 03:03:54;;;;;;;25.90;15.52;;;;;;;-1.49;71.33;94102.47;2068943;69;20152;-70
2021/12/16 03:06:20;;;;;;;27.83;14.25;;;;;;;-1.51;71.69;94091.16;2064766;69;20149;-69
2021/12/16 03:08:47;;;;;;;26.83;13.82;;;;;;;-1.49;71.60;94088.66;2065029;69;20177;-69
2021/12/16 03:14:02;;;;;;;22.08;11.45;;;;;;;-1.28;72.60;94086.44;2065042;69;20153;-69
2021/12/16 03:17:02;;;;;;;24.58;11.38;;;;;;;-1.33;72.93;94090.69;2065031;69;20214;-70
2021/12/16 03:21:47;;;;;;;26.15;13.82;;;;;;;-1.51;72.48;94079.34;2064529;69;20912;-69
2021/12/16 03:36:06;;;;;;;24.35;12.70;;;;;;;-1.61;71.56;94085.09;2065030;69;20497;-69
2021/12/16 03:38:13;;;;;;;22.30;13.10;;;;;;;-1.57;71.79;94077.31;2064615;69;20174;-70
2021/12/16 03:40:39;;;;;;;23.45;12.15;;;;;;;-1.53;72.17;94077.09;2068396;69;20580;-69
2021/12/16 03:43:11;;;;;;;20.17;11.43;;;;;;;-1.49;71.55;94083.13;2064913;69;20240;-69
2021/12/16 03:49:07;;;;;;;20.35;12.02;;;;;;;-1.66;72.52;94079.56;2064971;69;20180;-69
2021/12/16 03:51:40;;;;;;;19.27;9.82;;;;;;;-1.51;72.62;94080.13;2068240;69;20217;-70
2021/12/16 03:54:05;;;;;;;;;;;;;;;-1.55;72.87;94080.34;2068450;69;20165;-70
2021/12/16 03:56:33;;;;;;;17.98;10.07;;;;;;;-1.48;72.89;94081.13;2064857;69;20139;-71
2021/12/16 03:59:10;;;;;;;16.90;9.95;;;;;;;-1.40;72.78;94071.84;2067726;69;20593;-70
2021/12/16 04:01:57;;;;;;;18.73;9.68;;;;;;;-1.56;72.78;94072.53;2068378;69;20233;-69
2021/12/16 04:04:35;;;;;;;18.70;10.50;;;;;;;-1.57;72.75;94065.53;2067671;69;20192;-70
2021/12/16 04:07:04;;;;;;;46.92;25.20;;;;;;;-2.08;74.55;94072.91;2064811;69;20620;-70
2021/12/16 04:09:34;;;;;;;35.03;19.83;;;;;;;-1.75;72.92;94072.25;2064947;69;20164;-70
2021/12/16 04:12:18;;;;;;;26.33;14.85;;;;;;;-1.75;72.41;94063.22;2064982;69;20712;-70
2021/12/16 04:14:45;;;;;;;25.30;13.13;;;;;;;-1.68;72.29;94076.56;2064997;69;20147;-70
2021/12/16 04:17:13;;;;;;;29.63;16.60;;;;;;;-1.60;72.20;94074.81;2064954;69;20175;-70
2021/12/16 04:19:52;;;;;;;24.67;15.00;;;;;;;-1.62;73.00;94086.34;2064991;69;20194;-70
2021/12/16 04:22:27;;;;;;;23.52;12.32;;;;;;;-1.82;73.74;94092.06;2064851;69;20129;-69
2021/12/16 04:24:55;;;;;;;22.10;12.32;;;;;;;-1.69;72.47;94102.66;2064970;69;20148;-70
2021/12/16 04:27:21;;;;;;;22.77;13.38;;;;;;;-1.64;72.22;94099.16;2068277;69;20147;-69
2021/12/16 04:29:47;;;;;;;26.10;13.80;;;;;;;-1.61;72.37;94109.19;2064897;69;20227;-72
2021/12/16 04:32:14;;;;;;;26.75;15.02;;;;;;;-1.97;73.34;94091.50;2067777;69;20155;-69
2021/12/16 04:34:41;;;;;;;42.58;21.38;;;;;;;-1.87;74.50;94084.53;2064914;69;20190;-71
2021/12/16 04:37:07;;;;;;;28.50;14.80;;;;;;;-1.74;72.95;94093.09;2067612;69;20168;-70
2021/12/16 04:39:36;;;;;;;22.42;12.85;;;;;;;-1.75;73.47;94090.81;2064892;69;20240;-72
2021/12/16 04:42:03;;;;;;;57.50;26.65;;;;;;;-1.62;72.59;94080.81;2064879;69;20614;-72
2021/12/16 04:44:31;;;;;;;43.90;20.95;;;;;;;-1.56;72.32;94083.59;2064893;69;20144;-70
2021/12/16 04:46:59;;;;;;;24.70;13.07;;;;;;;-1.45;72.43;94082.88;2064861;69;20149;-71
2021/12/16 04:49:25;;;;;;;15.82;8.77;;;;;;;-1.44;71.30;94076.09;2064848;69;20217;-70
2021/12/16 04:51:55;;;;;;;21.90;12.10;;;;;;;-1.66;72.75;94076.78;2064758;69;20151;-70
2021/12/16 04:54:23;;;;;;;22.10;11.48;;;;;;;-1.73;73.31;94088.34;2064864;69;20155;-70
2021/12/16 04:56:52;;;;;;;24.17;12.27;;;;;;;-1.74;73.38;94092.34;2064841;69;20227;-70
2021/12/16 04:59:20;;;;;;;25.45;13.00;;;;;;;-1.84;74.94;94092.56;2064891;69;20522;-70
2021/12/16 05:01:54;;;;;;;24.33;13.40;;;;;;;-1.72;73.39;94100.88;2064835;69;20148;-69
2021/12/16 05:04:31;;;;;;;23.27;13.02;;;;;;;-1.73;73.06;94100.13;2064846;69;20203;-69
2021/12/16 05:06:57;;;;;;;22.42;12.68;;;;;;;-1.73;72.18;94099.38;2064824;69;20584;-69
2021/12/16 05:10:01;;;;;;;24.58;13.68;;;;;;;-1.78;72.52;94100.88;2065362;69;20153;-70
2021/12/16 05:12:22;;;;;;;26.58;13.88;;;;;;;-1.83;72.72;94105.13;2065247;69;20152;-69
2021/12/16 05:14:49;;;;;;;28.45;14.57;;;;;;;-1.72;72.20;94109.16;2065351;69;20148;-69
2021/12/16 05:17:30;;;;;;;30.00;14.68;;;;;;;-1.64;71.72;94107.44;2065334;69;20535;-69
2021/12/16 05:20:00;;;;;;;28.75;14.73;;;;;;;-1.74;71.56;94111.66;2065327;69;20341;-70
2021/12/16 05:25:22;;;;;;;35.08;16.98;;;;;;;-1.77;71.57;94115.44;2065357;69;20222;-69
2021/12/16 05:27:48;;;;;;;35.78;17.00;;;;;;;-1.76;71.14;94114.94;2068653;69;20508;-72
2021/12/16 05:30:14;;;;;;;38.10;17.42;;;;;;;-1.83;71.96;94120.94;2068634;69;20147;-71
2021/12/16 05:32:45;;;;;;;38.30;19.20;;;;;;;-1.76;71.63;94111.41;2065328;69;20207;-70
2021/12/16 05:35:15;;;;;;;34.33;17.77;;;;;;;-1.73;71.99;94118.72;2065320;69;20153;-70
2021/12/16 05:37:43;;;;;;;34.47;17.58;;;;;;;-1.86;71.82;94122.69;2065166;69;20152;-71
2021/12/16 05:40:10;;;;;;;33.92;16.98;;;;;;;-1.87;71.44;94120.41;2068141;69;20658;-71
2021/12/16 05:42:47;;;;;;;35.08;16.40;;;;;;;-1.80;71.40;94119.94;2065213;69;20161;-71
2021/12/16 05:45:13;;;;;;;35.38;17.08;;;;;;;-1.81;71.35;94123.94;2068578;69;20553;-72
2021/12/16 05:47:39;;;;;;;29.70;16.23;;;;;;;-1.81;71.27;94132.97;2065203;69;20152;-69
2021/12/16 05:50:08;;;;;;;28.42;15.70;;;;;;;-1.77;70.77;94126.47;2067995;69;20168;-69
2021/12/16 05:52:33;;;;;;;30.55;16.83;;;;;;;-1.76;70.83;94127.97;2065129;69;20145;-70
2021/12/16 05:55:00;;;;;;;31.70;16.98;;;;;;;-1.85;70.91;94131.72;2065166;69;20164;-69
2021/12/16 05:57:56;;;;;;;31.50;16.77;;;;;;;-1.81;70.84;94135.75;2065143;69;20152;-70
2021/12/16 06:00:30;;;;;;;27.77;14.98;;;;;;;-1.87;71.91;94140.50;2065159;69;20137;-70
2021/12/16 06:02:58;;;;;;;29.23;15.10;;;;;;;-1.82;71.67;94133.50;2065154;69;20143;-71
2021/12/16 06:05:25;;;;;;;30.00;15.30;;;;;;;-1.95;71.32;94128.41;2064980;69;20144;-72
2021/12/16 06:07:52;;;;;;;30.50;16.42;;;;;;;-2.07;71.64;94133.09;2065175;69;20143;-72
2021/12/16 06:13:07;;;;;;;33.08;16.35;;;;;;;-2.07;71.40;94129.59;2068525;69;20149;-73
2021/12/16 06:28:51;;;;;;;34.65;17.70;;;;;;;-1.94;71.21;94162.28;2071893;69;20140;-72
2021/12/16 06:31:17;;;;;;;31.05;17.30;;;;;;;-1.95;71.56;94167.06;2070090;69;20157;-72
2021/12/16 06:33:43;;;;;;;27.95;16.00;;;;;;;-1.88;71.51;94161.06;2068495;69;20213;-69
2021/12/16 06:36:09;;;;;;;26.33;15.02;;;;;;;-1.90;70.60;94152.50;2068546;69;20240;-73
2021/12/16 06:38:34;;;;;;;29.55;16.55;;;;;;;-1.85;71.53;94148.28;2065183;69;20137;-72
2021/12/16 06:41:16;;;;;;;27.85;15.45;;;;;;;-2.00;71.02;94156.75;2065783;69;20148;-73
2021/12/16 06:44:25;;;;;;;28.60;15.73;;;;;;;-1.93;71.18;94167.28;2068428;69;20539;-71
2021/12/16 06:46:57;;;;;;;31.52;15.48;;;;;;;-1.99;70.41;94174.81;2071930;69;20148;-70
2021/12/16 06:49:23;;;;;;;28.00;15.20;;;;;;;-2.02;70.84;94177.78;2071830;69;20213;-71
2021/12/16 06:52:00;;;;;;;26.92;14.82;;;;;;;-2.04;70.93;94175.53;2071778;69;20132;-72
2021/12/16 06:54:30;;;;;;;27.10;14.50;;;;;;;-2.02;70.64;94173.03;2071621;69;20147;-73
2021/12/16 06:57:18;;;;;;;32.83;19.23;;;;;;;-2.13;71.65;94175.72;2068385;69;20333;-72
2021/12/16 06:59:56;;;;;;;36.60;20.25;;;;;;;-2.20;72.02;94179.72;2068460;69;20298;-72
2021/12/16 07:02:58;;;;;;;41.45;21.17;;;;;;;-2.20;71.06;94190.75;2068439;69;20164;-71
2021/12/16 07:05:15;;;;;;;44.25;24.17;;;;;;;-2.05;70.96;94194.09;2067860;69;20148;-69
2021/12/16 07:07:41;;;;;;;38.78;21.05;;;;;;;-2.20;71.50;94190.75;2068279;69;20144;-72
2021/12/16 07:10:10;;;;;;;33.78;19.95;;;;;;;-2.17;72.20;94187.00;2071353;69;20151;-72
2021/12/16 07:12:37;;;;;;;44.08;23.75;;;;;;;-2.18;71.36;94191.00;2069855;69;20236;-70
2021/12/16 07:15:10;;;;;;;53.10;28.00;;;;;;;-2.32;72.95;94191.91;2068576;69;20242;-70
2021/12/16 07:17:37;;;;;;;46.70;25.17;;;;;;;-2.28;72.34;94199.97;2070598;69;20167;-71
2021/12/16 07:20:05;;;;;;;43.80;25.17;;;;;;;-2.24;72.15;94200.50;2071646;69;20140;-71
2021/12/16 07:22:30;;;;;;;41.53;24.08;;;;;;;-2.13;72.10;94209.59;2071391;69;20160;-71
2021/12/16 07:24:56;;;;;;;42.33;23.10;;;;;;;-2.14;71.89;94201.81;2070267;69;20160;-70
2021/12/16 07:27:21;;;;;;;50.33;26.30;;;;;;;-2.13;71.76;94215.13;2068451;69;20145;-70
2021/12/16 07:29:47;;;;;;;60.13;29.25;;;;;;;-2.15;72.26;94216.88;2068354;69;20152;-73
2021/12/16 07:32:13;;;;;;;52.13;27.13;;;;;;;-2.17;72.63;94224.88;2068311;69;20504;-72
2021/12/16 07:34:38;;;;;;;53.40;27.77;;;;;;;-2.17;72.40;94224.88;2068350;69;20144;-69
2021/12/16 07:37:08;;;;;;;48.83;26.38;;;;;;;-2.15;71.53;94225.91;2068450;69;20132;-69
2021/12/16 07:39:42;;;;;;;53.35;27.50;;;;;;;-2.17;72.34;94233.91;2071724;69;20623;-70
2021/12/16 07:42:13;;;;;;;49.28;24.58;;;;;;;-1.99;72.72;94240.28;2071720;69;20227;-69
2021/12/16 07:44:39;;;;;;;49.50;26.13;;;;;;;-2.21;72.65;94247.16;2071780;69;20171;-73
2021/12/16 07:47:08;;;;;;;52.03;27.45;;;;;;;-2.70;75.53;94251.78;2071714;69;20172;-71
2021/12/16 07:49:39;;;;;;;50.35;26.70;;;;;;;-2.35;74.00;94257.09;2071674;69;20590;-72
2021/12/16 07:52:07;;;;;;;45.25;24.92;;;;;;;-2.18;73.07;94259.97;2071576;69;20631;-73
2021/12/16 07:54:32;;;;;;;49.15;25.33;;;;;;;-2.26;73.49;94258.91;2071700;69;20151;-73
2021/12/16 07:56:59;;;;;;;43.65;25.02;;;;;;;-2.34;73.46;94258.63;2069665;69;20152;-71
2021/12/16 07:59:27;;;;;;;38.53;20.85;;;;;;;-2.08;72.94;94255.03;2070714;69;20163;-73
2021/12/16 08:01:53;;;;;;;36.58;19.02;;;;;;;-2.17;73.36;94263.50;2071899;69;20150;-72
2021/12/16 08:04:28;;;;;;;29.77;17.45;;;;;;;-2.10;73.58;94271.34;2071622;69;20181;-72
2021/12/16 08:06:57;;;;;;;32.80;18.52;;;;;;;-2.16;73.48;94273.28;2071633;69;20624;-72
2021/12/16 08:09:23;;;;;;;37.55;19.73;;;;;;;-2.06;72.47;94291.19;2071662;69;20148;-73
2021/12/16 08:11:50;;;;;;;34.58;17.42;;;;;;;-2.21;73.04;94279.53;2071675;69;20243;-71
2021/12/16 08:14:17;;;;;;;33.65;16.13;;;;;;;-2.20;73.20;94287.31;2071726;69;20144;-69
2021/12/16 08:16:44;;;;;;;32.53;16.55;;;;;;;-2.16;73.30;94298.88;2071691;69;20318;-72
2021/12/16 08:19:09;;;;;;;40.15;20.08;;;;;;;-2.06;72.79;94299.47;2070887;69;20594;-69
2021/12/16 08:21:36;;;;;;;38.88;17.58;;;;;;;-2.21;73.32;94305.09;2071655;69;20239;-69
2021/12/16 08:24:05;;;;;;;31.95;16.65;;;;;;;-2.22;74.00;94314.63;2069171;69;20167;-73
2021/12/16 08:26:31;;;;;;;36.35;17.90;;;;;;;-2.25;74.78;94312.09;2071607;69;20658;-70
2021/12/16 08:28:58;;;;;;;48.45;17.25;;;;;;;-2.08;74.29;94318.50;2071640;69;20159;-73
2021/12/16 08:31:24;;;;;;;47.20;17.85;;;;;;;-1.97;73.66;94320.59;2071723;69;20147;-73
2021/12/16 08:33:50;;;;;;;44.55;18.33;;;;;;;-2.46;75.83;94334.22;2071626;69;20241;-73
2021/12/16 08:36:16;;;;;;;35.10;17.85;;;;;;;-1.96;74.90;94328.41;2071513;69;20633;-72
2021/12/16 08:38:43;;;;;;;35.90;17.45;;;;;;;-1.58;73.71;94332.69;2071593;69;20241;-75
2021/12/16 08:41:15;;;;;;;34.83;19.33;;;;;;;-1.46;73.46;94330.75;2071155;69;20152;-75
2021/12/16 08:43:44;;;;;;;36.00;19.55;;;;;;;-1.44;74.27;94322.72;2072035;69;20212;-68
2021/12/16 08:46:12;;;;;;;40.42;19.92;;;;;;;-1.39;73.82;94324.00;2072138;69;20132;-69
2021/12/16 08:48:39;;;;;;;44.67;21.15;;;;;;;-1.15;73.37;94329.16;2072085;69;20212;-68
2021/12/16 08:51:06;;;;;;;41.13;22.02;;;;;;;-1.26;73.90;94335.38;2072042;69;20140;-67
2021/12/16 08:53:33;;;;;;;50.85;20.33;;;;;;;-1.56;75.17;94335.72;2072140;69;20205;-68
2021/12/16 08:55:59;;;;;;;44.42;21.08;;;;;;;-1.47;74.73;94347.81;2068738;69;20144;-68
2021/12/16 08:58:25;;;;;;;56.55;23.17;;;;;;;-1.68;76.68;94350.69;2072134;69;20542;-68
2021/12/16 09:00:59;;;;;;;53.95;21.60;;;;;;;-1.35;74.85;94352.91;2071454;69;20620;-71
2021/12/16 09:03:28;;;;;;;65.38;25.85;;;;;;;-1.37;75.91;94355.44;2068314;69;20251;-72
2021/12/16 09:05:54;;;;;;;77.78;25.77;;;;;;;-1.49;75.73;94364.88;2071918;69;20514;-72
2021/12/16 09:08:20;;;;;;;46.22;23.30;;;;;;;-1.64;77.00;94359.53;2072071;69;20153;-72
2021/12/16 09:10:46;;;;;;;65.88;24.20;;;;;;;-1.59;77.24;94360.81;2072041;69;20597;-72
2021/12/16 09:13:15;;;;;;;72.78;25.83;;;;;;;-1.43;76.83;94353.88;2071670;69;20513;-72
2021/12/16 09:15:50;;;;;;;81.40;24.92;;;;;;;-1.35;76.23;94357.69;2071815;69;20246;-72
2021/12/16 09:18:19;;;;;;;59.00;22.58;;;;;;;-1.39;76.75;94351.63;2071907;69;20144;-73
2021/12/16 09:20:44;;;;;;;55.88;22.67;;;;;;;-1.40;76.94;94361.19;2071929;69;20303;-69
2021/12/16 09:23:11;;;;;;;97.35;23.95;;;;;;;-1.56;77.12;94355.06;2072073;69;20575;-70
2021/12/16 09:25:39;;;;;;;46.83;22.75;;;;;;;-1.24;77.24;94351.47;2072133;69;20503;-70
2021/12/16 09:28:05;;;;;;;63.47;24.75;;;;;;;-0.95;75.92;94348.34;2072032;69;20507;-68
2021/12/16 09:30:31;;;;;;;53.95;23.23;;;;;;;-0.82;74.79;94356.97;2071875;69;20648;-69
2021/12/16 09:33:00;;;;;;;51.05;24.20;;;;;;;-0.84;74.47;94355.94;2072066;69;20262;-69
2021/12/16 09:35:28;;;;;;;64.18;23.90;;;;;;;-1.04;75.41;94363.16;2072027;69;20555;-69
2021/12/16 09:37:55;;;;;;;44.35;22.95;;;;;;;-0.64;74.18;94360.53;2072008;69;20144;-70
2021/12/16 09:40:24;;;;;;;46.17;22.90;;;;;;;-0.44;74.23;94356.84;2071994;69;20202;-71
2021/12/16 09:42:52;;;;;;;47.92;23.73;;;;;;;-0.63;74.24;94360.06;2071951;69;20148;-72
2021/12/16 09:45:18;;;;;;;50.42;23.98;;;;;;;-0.70;75.42;94363.28;2072073;69;20156;-73
2021/12/16 09:47:45;;;;;;;56.72;25.92;;;;;;;-0.89;76.34;94360.19;2071962;69;20238;-73
2021/12/16 09:50:15;;;;;;;80.78;23.17;;;;;;;-0.74;75.57;94357.22;2072090;69;20183;-74
2021/12/16 09:52:40;;;;;;;41.63;22.10;;;;;;;-0.33;74.71;94351.31;2071846;69;20562;-73
2021/12/16 09:55:07;;;;;;;48.55;23.10;;;;;;;-0.14;74.36;94351.59;2071759;69;20156;-72
2021/12/16 09:57:33;;;;;;;52.47;24.33;;;;;;;-0.29;74.69;94349.81;2072207;69;20145;-71
2021/12/16 09:59:59;;;;;;;50.33;23.35;;;;;;;-0.13;74.65;94351.13;2072075;69;20313;-73
2021/12/16 10:02:25;;;;;;;50.78;24.13;;;;;;;-0.03;74.17;94346.84;2072079;69;20136;-73
2021/12/16 10:04:51;;;;;;;52.85;24.30;;;;;;;-0.08;74.55;94349.63;2071996;69;20192;-71
2021/12/16 10:07:20;;;;;;;40.85;22.20;;;;;;;0.22;73.84;94350.63;2071843;69;20144;-70
2021/12/16 10:09:51;;;;;;;47.78;21.60;;;;;;;0.16;73.38;94355.41;2071950;69;20241;-71
2021/12/16 10:12:21;;;;;;;42.40;20.90;;;;;;;0.21;73.88;94348.38;2072050;69;20160;-71
2021/12/16 10:17:27;;;;;;;53.57;20.67;;;;;;;0.20;73.83;94355.91;2072077;69;20195;-69
2021/12/16 10:19:56;;;;;;;61.80;22.63;;;;;;;-0.18;75.00;94342.78;2071336;69;20182;-71
2021/12/16 10:22:39;;;;;;;55.78;20.80;;;;;;;-0.13;75.85;94339.28;2070060;69;20164;-71
2021/12/16 10:25:26;;;;;;;47.15;19.13;;;;;;;-0.08;75.81;94338.53;2067475;69;20152;-72
2021/12/16 10:28:05;;;;;;;44.78;18.40;;;;;;;0.15;74.30;94331.00;2071069;69;20156;-71
2021/12/16 10:31:08;;;;;;;38.30;19.58;;;;;;;0.64;73.22;94337.78;2071325;69;20170;-70
2021/12/16 10:33:36;;;;;;;29.15;15.93;;;;;;;0.36;73.61;94337.03;2057395;69;20172;-67
2021/12/16 10:36:13;;;;;;;31.05;16.50;;;;;;;0.37;73.92;94335.78;2057432;69;20306;-68
2021/12/16 10:38:48;;;;;;;33.10;17.10;;;;;;;0.26;73.72;94342.06;2054606;69;20569;-69
2021/12/16 10:41:23;;;;;;;26.52;15.40;;;;;;;0.36;73.81;94343.31;2057685;69;20161;-67
2021/12/16 10:44:17;;;;;;;29.73;16.27;;;;;;;0.08;75.06;94346.09;2057651;69;20134;-68
2021/12/16 10:46:44;;;;;;;28.73;15.18;;;;;;;0.72;73.51;94351.84;2057627;69;20290;-68
2021/12/16 10:49:14;;;;;;;27.42;15.52;;;;;;;0.87;72.45;94344.03;2057693;69;20153;-68
2021/12/16 10:51:46;;;;;;;32.90;17.08;;;;;;;0.84;72.66;94341.50;2057476;69;20150;-71
2021/12/16 10:54:22;;;;;;;34.22;17.65;;;;;;;0.76;72.39;94350.31;2057507;69;20149;-73
2021/12/16 10:56:53;;;;;;;34.30;17.58;;;;;;;0.69;73.47;94345.31;2057445;69;20160;-74
2021/12/16 10:59:21;;;;;;;37.58;18.63;;;;;;;0.46;73.58;94339.03;2056634;69;20199;-76
2021/12/16 11:02:03;;;;;;;33.92;17.92;;;;;;;0.48;73.50;94335.75;2057176;69;20317;-74
2021/12/16 11:04:47;;;;;;;32.80;17.40;;;;;;;0.58;73.84;94341.78;2057314;69;20339;-71
2021/12/16 11:07:25;;;;;;;42.40;24.23;;;;;;;0.74;73.33;94336.22;2060098;69;20238;-72
2021/12/16 11:09:50;;;;;;;38.83;20.45;;;;;;;0.72;73.82;94330.41;2064908;69;20140;-74
2021/12/16 11:12:24;;;;;;;36.70;19.80;;;;;;;1.08;72.33;94332.59;2064853;69;20207;-73
2021/12/16 11:14:55;;;;;;;32.85;18.92;;;;;;;1.02;71.84;94338.19;2064799;69;20156;-74
2021/12/16 11:17:24;;;;;;;43.47;24.67;;;;;;;1.08;72.04;94338.16;2064827;69;20547;-74
2021/12/16 11:20:20;;;;;;;31.42;17.10;;;;;;;1.15;71.73;94340.41;2064891;69;20156;-73
2021/12/16 11:22:49;;;;;;;30.58;16.77;;;;;;;1.17;71.10;94330.28;2060355;69;20181;-72
2021/12/16 11:25:14;;;;;;;30.05;16.92;;;;;;;1.13;72.04;94340.91;2060652;69;20612;-73
2021/12/16 11:27:42;;;;;;;32.10;16.90;;;;;;;1.17;71.77;94332.31;2060623;69;20141;-73
2021/12/16 11:30:29;;;;;;;27.30;15.18;;;;;;;0.99;72.10;94331.63;2060660;69;20172;-69
2021/12/16 11:33:05;;;;;;;27.65;16.30;;;;;;;0.94;71.93;94328.88;2060728;69;20237;-72
2021/12/16 11:35:41;;;;;;;26.88;14.90;;;;;;;1.04;72.29;94327.31;2060457;69;20145;-69
2021/12/16 11:38:14;;;;;;;28.70;16.48;;;;;;;0.79;72.93;94329.16;2060675;69;20621;-69
2021/12/16 11:41:18;;;;;;;24.10;15.10;;;;;;;1.05;71.97;94331.59;2060574;69;20157;-71
2021/12/16 11:43:56;;;;;;;27.73;15.32;;;;;;;1.05;72.15;94323.28;2055733;69;20767;-71
2021/12/16 11:46:40;;;;;;;24.77;13.77;;;;;;;1.27;70.57;94323.19;2060692;69;20232;-72
2021/12/16 11:49:08;;;;;;;25.50;14.68;;;;;;;1.39;70.65;94321.13;2060579;69;20150;-69
2021/12/16 11:51:41;;;;;;;29.05;17.13;;;;;;;1.38;70.25;94324.44;2060552;69;20532;-69
2021/12/16 11:54:19;;;;;;;30.00;17.77;;;;;;;0.95;71.20;94333.91;2060546;69;20169;-69
2021/12/16 11:56:59;;;;;;;37.60;24.75;;;;;;;0.93;72.01;94338.44;2060639;69;20536;-70
2021/12/16 11:59:30;;;;;;;47.80;35.05;;;;;;;1.10;71.96;94332.84;2062201;69;20213;-68
2021/12/16 12:01:56;;;;;;;31.08;18.50;;;;;;;1.20;71.15;94343.16;2064615;69;20158;-71
2021/12/16 12:04:32;;;;;;;27.92;16.80;;;;;;;1.27;70.25;94342.59;2064738;69;20149;-69
2021/12/16 12:06:59;;;;;;;31.08;18.10;;;;;;;1.19;71.12;94349.19;2064700;69;20164;-69
2021/12/16 12:09:48;;;;;;;26.15;15.02;;;;;;;1.15;70.67;94348.72;2064773;69;20174;-68
2021/12/16 12:12:14;;;;;;;28.25;16.65;;;;;;;0.80;71.35;94352.84;2064955;69;20595;-70
2021/12/16 12:14:42;;;;;;;30.75;18.67;;;;;;;0.50;74.25;94344.31;2064749;69;20654;-69
2021/12/16 12:17:20;;;;;;;32.00;18.50;;;;;;;0.61;74.16;94341.53;2064728;69;20149;-69
2021/12/16 12:19:49;;;;;;;33.38;18.45;;;;;;;0.92;72.41;94345.28;2065098;69;20145;-69
2021/12/16 12:22:22;;;;;;;34.88;21.65;;;;;;;0.96;71.78;94346.53;2064789;69;20141;-70
2021/12/16 12:24:47;;;;;;;34.72;19.17;;;;;;;1.03;71.36;94348.00;2065000;69;20604;-69
2021/12/16 12:27:23;;;;;;;32.97;18.23;;;;;;;1.03;72.11;94345.22;2065034;69;20159;-69
2021/12/16 12:30:16;;;;;;;33.42;18.10;;;;;;;1.05;72.06;94347.47;2064885;69;20136;-68
2021/12/16 12:32:47;;;;;;;30.83;17.13;;;;;;;1.08;72.05;94338.91;2063755;69;20161;-69
2021/12/16 12:35:17;;;;;;;28.90;16.05;;;;;;;1.16;71.76;94350.22;2064192;69;20747;-69
2021/12/16 12:37:47;;;;;;;27.20;15.52;;;;;;;1.21;71.58;94349.47;2064125;69;20152;-69
2021/12/16 12:40:39;;;;;;;26.80;15.10;;;;;;;1.21;70.87;94341.88;2064656;69;20600;-69
2021/12/16 12:43:09;;;;;;;25.58;14.43;;;;;;;1.15;70.50;94349.47;2064796;69;20741;-70
2021/12/16 12:45:40;;;;;;;23.95;14.10;;;;;;;1.25;69.83;94344.41;2064582;69;20152;-69
2021/12/16 12:48:12;;;;;;;20.97;12.47;;;;;;;1.27;70.10;94348.16;2064437;69;20177;-67
2021/12/16 12:50:41;;;;;;;22.15;13.40;;;;;;;1.34;70.47;94358.00;2064749;69;20490;-69
2021/12/16 12:53:15;;;;;;;23.55;13.85;;;;;;;1.27;70.69;94341.84;2064993;69;20168;-72
2021/12/16 12:55:41;;;;;;;25.30;14.90;;;;;;;1.32;70.38;94346.63;2064756;69;20145;-71
2021/12/16 12:58:15;;;;;;;31.88;17.02;;;;;;;0.87;71.08;94340.47;2064831;69;20157;-71
2021/12/16 13:00:52;;;;;;;36.88;20.17;;;;;;;0.68;72.49;94337.47;2064752;69;20141;-68
2021/12/16 13:03:29;;;;;;;35.58;19.30;;;;;;;0.49;73.75;94328.94;2064554;69;20610;-68
2021/12/16 13:06:01;;;;;;;35.63;19.83;;;;;;;0.53;74.09;94328.69;2064071;69;20588;-68
2021/12/16 13:08:42;;;;;;;36.50;19.73;;;;;;;0.72;73.63;94338.75;2064770;69;20226;-70
2021/12/16 13:11:16;;;;;;;36.30;19.65;;;;;;;0.78;73.59;94338.75;2064753;69;20160;-70
2021/12/16 13:23:20;;;;;;;32.97;17.30;;;;;;;0.44;74.66;94341.56;2064674;69;20181;-68
2021/12/16 13:28:16;;;;;;;30.83;17.75;;;;;;;0.63;74.45;94335.47;2063766;69;20570;-72
2021/12/16 13:30:54;;;;;;;29.90;17.48;;;;;;;0.59;74.11;94332.97;2064798;69;20588;-72
2021/12/16 13:33:25;;;;;;;31.90;16.83;;;;;;;0.54;74.89;94332.97;2065206;69;20141;-71
2021/12/16 13:36:03;;;;;;;36.60;19.15;;;;;;;0.67;74.60;94341.53;2065059;69;20224;-72
2021/12/16 13:38:43;;;;;;;38.22;19.52;;;;;;;0.83;73.75;94328.91;2065125;69;20601;-72
2021/12/16 13:41:18;;;;;;;34.08;18.00;;;;;;;0.53;74.66;94337.00;2065127;69;20231;-72
2021/12/16 13:43:59;;;;;;;28.75;16.02;;;;;;;0.66;74.32;94343.53;2065471;69;20152;-72
2021/12/16 13:46:41;;;;;;;28.05;15.75;;;;;;;0.82;73.15;94342.00;2064777;69;20140;-72
2021/12/16 14:01:56;;;;;;;28.25;14.15;;;;;;;1.13;73.13;94360.31;2059974;69;20169;-72
2021/12/16 14:06:56;;;;;;;27.33;15.00;;;;;;;1.20;73.00;94367.38;2065169;69;20145;-70
2021/12/16 14:09:29;;;;;;;27.13;14.52;;;;;;;1.08;73.87;94374.22;2065402;69;20137;-70
2021/12/16 14:17:26;;;;;;;27.20;14.43;;;;;;;1.24;73.06;94390.81;2065191;69;20500;-71
2021/12/16 14:26:08;;;;;;;30.77;17.30;;;;;;;1.04;73.09;94388.34;2057525;69;20249;-72
2021/12/16 14:32:00;;;;;;;37.65;18.65;;;;;;;1.20;73.29;94378.47;2063479;69;20140;-72
2021/12/16 14:43:39;;;;;;;36.55;18.77;;;;;;;0.88;75.05;94403.75;2065158;69;20238;-72
2021/12/16 14:48:21;;;;;;;32.80;17.52;;;;;;;1.15;73.32;94399.41;2065276;69;20137;-71
2021/12/16 14:51:06;;;;;;;40.20;21.48;;;;;;;1.19;73.17;94399.13;2065163;69;20141;-71
2021/12/16 14:53:34;;;;;;;42.72;21.52;;;;;;;1.24;74.25;94415.78;2065277;69;20141;-71
2021/12/16 14:56:19;;;;;;;38.15;19.80;;;;;;;1.28;73.29;94404.41;2065082;69;20160;-71
2021/12/16 14:58:49;;;;;;;39.22;19.50;;;;;;;1.31;73.72;94400.63;2065345;69;20149;-71
2021/12/16 15:01:22;;;;;;;35.28;17.30;;;;;;;1.38;73.04;94402.88;2065143;69;20690;-71
2021/12/16 15:03:49;;;;;;;;;;;;;;;1.41;72.99;94403.88;2065436;69;20520;-71
2021/12/16 15:06:25;;;;;;;39.67;20.02;;;;;;;1.33;73.57;94425.84;2065060;69;20048;-72
2021/12/16 15:11:48;;;;;;;34.70;18.52;;;;;;;1.36;73.41;94415.75;2065131;69;20243;-71
2021/12/16 15:14:35;;;;;;;31.58;17.40;;;;;;;1.16;74.10;94419.59;2065103;69;20214;-72
2021/12/16 15:17:19;;;;;;;88.03;48.60;;;;;;;1.24;73.39;94424.13;2065079;69;20149;-70